Wind EuroAirport

Messzeit Windrichtung Windgeschwindigkeit [Knoten] Rückenwind Nordpiste [Knoten] METAR
2019-04-18 22:00 W 260° 3 1 LFSB 182000Z 26003KT CAVOK 12/08 Q1021 NOSIG
2019-04-18 21:30 - 2 - LFSB 181930Z VRB02KT CAVOK 14/08 Q1021 NOSIG
2019-04-18 21:00 NW 310° 3 3 LFSB 181900Z 31003KT CAVOK 16/07 Q1020 NOSIG
2019-04-18 20:30 N 350°
(320°–30°)
3 2–3 LFSB 181830Z 35003KT 320V030 CAVOK 17/07 Q1020 NOSIG
2019-04-18 20:00 var 360° 5 5 LFSB 181800Z 36005KT CAVOK 18/07 Q1020 NOSIG
2019-04-18 19:30 N 350° 6 6 LFSB 181730Z 35006KT CAVOK 20/07 Q1020 NOSIG
2019-04-18 19:00 N 350° 7 7 LFSB 181700Z 35007KT CAVOK 21/07 Q1020 NOSIG
2019-04-18 18:30 N 340° 7 7 LFSB 181630Z 34007KT CAVOK 21/07 Q1020 NOSIG
2019-04-18 18:00 var 360°
(320°–50°)
6 2–6 LFSB 181600Z 36006KT 320V050 CAVOK 22/08 Q1019 NOSIG
2019-04-18 17:30 N 350° 5 5 LFSB 181530Z 35005KT CAVOK 22/06 Q1019 NOSIG
2019-04-18 17:00 var 360°
(330°–30°)
7 4–7 LFSB 181500Z 36007KT 330V030 CAVOK 22/06 Q1020 NOSIG
2019-04-18 16:30 N 10° 6 5 LFSB 181430Z 01006KT CAVOK 22/07 Q1020 NOSIG
2019-04-18 16:00 N 350°
(270°–50°)
6 2–6 LFSB 181400Z 35006KT 270V050 9999 FEW055 SCT290 21/07 Q1020 NOSIG
2019-04-18 15:30 N 340°
(290°–20°)
7 4–7 LFSB 181330Z 34007KT 290V020 9999 FEW055 SCT280 21/07 Q1020 NOSIG
2019-04-18 15:00 N 350°
(290°–60°)
4 1–4 LFSB 181300Z 35004KT 290V060 9999 FEW055 SCT280 21/07 Q1020 NOSIG
2019-04-18 14:30 - 3 - LFSB 181230Z VRB03KT 9999 FEW055 SCT280 20/06 Q1020 NOSIG
2019-04-18 14:00 N 10°
(310°–70°)
5 0–5 LFSB 181200Z 01005KT 310V070 9999 FEW055 SCT280 19/06 Q1020 NOSIG
2019-04-18 13:30 N 350°
(300°–40°)
5 3–5 LFSB 181130Z 35005KT 300V040 9999 FEW050 SCT270 19/05 Q1021 NOSIG
2019-04-18 13:00 var 360°
(290°–100°)
5 0–5 LFSB 181100Z 36005KT 290V100 9999 FEW050 SCT270 18/05 Q1021 NOSIG
2019-04-18 12:30 N 350°
(280°–50°)
4 1–4 LFSB 181030Z 35004KT 280V050 9999 FEW050 SCT270 17/03 Q1021 NOSIG
2019-04-18 12:00 var 360°
(300°–60°)
3 1–3 LFSB 181000Z 36003KT 300V060 9999 FEW045 SCT260 16/04 Q1021 NOSIG
2019-04-18 11:30 - 2 - LFSB 180930Z VRB02KT 9999 FEW040 BKN260 16/07 Q1021 NOSIG
2019-04-18 11:00 - 2 - LFSB 180900Z VRB02KT CAVOK 14/05 Q1022 NOSIG
2019-04-18 10:30 - 1 - LFSB 180830Z VRB01KT CAVOK 14/05 Q1022 NOSIG
2019-04-18 10:00 - 0 - LFSB 180800Z 00000KT CAVOK 13/05 Q1022 NOSIG
2019-04-18 09:30 - 1 - LFSB 180730Z VRB01KT CAVOK 12/06 Q1022 NOSIG
2019-04-18 09:00 - 0 - LFSB 180700Z 00000KT CAVOK 11/07 Q1022 NOSIG
2019-04-18 08:30 - 2 - LFSB 180630Z VRB02KT CAVOK 09/07 Q1022 NOSIG
2019-04-18 08:00 - 2 - LFSB 180600Z VRB02KT 9000 NSC 08/07 Q1022 NOSIG
2019-04-18 07:30 SW 210° 3 - LFSB 180530Z 21003KT 8000 3500NW VCFG FEW003 SCT260 06/05 Q1021 BECMG CAVOK
2019-04-18 07:00 SW 220° 2 - LFSB 180500Z 22002KT 5000 1500N R33/1000U VCFG FEW004 BKN250 05/05 Q1021 BECMG CAVOK
2019-04-18 06:30 SW 210° 2 - LFSB 180430Z 21002KT 1500 VCFG BR FEW004 BKN220 04/04 Q1021 NOSIG
2019-04-18 06:00 - 0 - LFSB 180400Z 00000KT 6000 MIFG NSC 05/05 Q1021 NOSIG
2019-04-18 05:30 - 2 - LFSB 180330Z VRB02KT 6000 NSC 06/06 Q1021 NOSIG
2019-04-18 05:00 SW 240° 2 - LFSB 180300Z 24002KT 5000 BR NSC 06/05 Q1021 NOSIG
2019-04-18 04:30 - 0 - LFSB 180230Z 00000KT 6000 2000S R33/1300D BR NSC 06/05 Q1020 NOSIG
2019-04-18 04:00 - 1 - LFSB 180200Z AUTO VRB01KT 9999 0900 R15/P2000 R33/1300D BCFG NSC 06/05 Q1020 TEMPO 0800 BCFG
2019-04-18 03:30 - 0 - LFSB 180130Z AUTO 00000KT 5000 BR NSC 06/06 Q1020 TEMPO 0800 BCFG
2019-04-18 03:00 - 2 - LFSB 180100Z AUTO VRB02KT 9999 4000 R33/1100U NSC 06/06 Q1020 TEMPO 0800 BCFG
2019-04-18 02:30 W 280° 1 1 LFSB 180030Z AUTO 28001KT CAVOK 07/06 Q1020 TEMPO 0800 BCFG
2019-04-18 02:00 - 1 - LFSB 180000Z AUTO VRB01KT CAVOK 07/06 Q1020 TEMPO 0800 BCFG
2019-04-18 01:30 - 0 - LFSB 172330Z AUTO 00000KT CAVOK 08/08 Q1020 TEMPO 0800 BCFG
2019-04-18 01:00 - 0 - LFSB 172300Z AUTO 00000KT CAVOK 09/08 Q1020 TEMPO 3000 BR
2019-04-18 00:30 NW 300° 4 3 LFSB 172230Z AUTO 30004KT CAVOK 09/07 Q1020 TEMPO 3000 BR
2019-04-18 00:00 NW 300° 5 4 LFSB 172200Z 30005KT CAVOK 09/08 Q1020 NOSIG
2019-04-17 23:30 NW 330° 6 6 LFSB 172130Z 33006KT CAVOK 11/08 Q1020 NOSIG
2019-04-17 23:00 NW 320° 3 3 LFSB 172100Z 32003KT CAVOK 11/09 Q1019 NOSIG